Private Wetterstation Wechselburg
Wetterdaten: Freitag, 10.12.2021
Datum Zeit Temp. +2m Bodentemp. Temp.+5cm Temp. Wind Windchill X Diff Temp. Feuchte +2m Feuchte +5cm Luftdruck Regen Wind Richtung Richtung Sonnenschein Taupunkt Windchill Windben
10.12.2021 00:00 0,5 C 6,1 C 0,8 C 1,1 C 1,1 C 0,6 C 89 % 94 % 1006,5 hPa 0,0 l/m 1,8 km/h (1 Bft) SW 225 0 min -1,1 C 1,1 C 3,5 km/h (1 Bft)
10.12.2021 00:05 0,5 C 6,1 C 0,7 C 1,0 C 1,0 C 0,5 C 89 % 94 % 1006,5 hPa 0,0 l/m 1,4 km/h (1 Bft) SW 225 0 min -1,1 C 1,0 C 1,8 km/h (1 Bft)
10.12.2021 00:10 0,5 C 6,1 C 0,7 C 0,9 C 0,9 C 0,4 C 89 % 94 % 1006,8 hPa 0,0 l/m 1,3 km/h (1 Bft) W-SW 247 0 min -1,1 C 0,9 C 2,9 km/h (1 Bft)
10.12.2021 00:15 0,5 C 6,1 C 0,7 C 0,9 C 0,9 C 0,4 C 89 % 94 % 1006,8 hPa 0,0 l/m 0,6 km/h (0 Bft) SW 225 0 min -1,1 C 0,9 C 3,2 km/h (1 Bft)
10.12.2021 00:20 0,5 C 6,1 C 0,6 C 0,8 C 0,8 C 0,3 C 89 % 94 % 1006,8 hPa 0,0 l/m 0,6 km/h (0 Bft) S 180 0 min -1,1 C 0,8 C 0,0 km/h (0 Bft)
10.12.2021 00:25 0,4 C 6,1 C 0,5 C 0,6 C 0,6 C 0,2 C 89 % 94 % 1006,8 hPa 0,0 l/m 0,2 km/h (0 Bft) W-SW 247 0 min -1,2 C 0,6 C 0,0 km/h (0 Bft)
10.12.2021 00:30 0,5 C 6,1 C 0,5 C 0,6 C 0,6 C 0,1 C 89 % 94 % 1006,0 hPa 0,0 l/m 0,0 km/h (0 Bft) S-SO 157 0 min -1,1 C 0,6 C 0,0 km/h (0 Bft)
10.12.2021 00:35 0,4 C 6,1 C 0,5 C 0,6 C 0,6 C 0,2 C 89 % 94 % 1006,0 hPa 0,0 l/m 0,5 km/h (0 Bft) O-SO 112 0 min -1,2 C 0,6 C 3,4 km/h (1 Bft)
10.12.2021 00:40 0,4 C 6,1 C 0,5 C 0,6 C 0,6 C 0,2 C 89 % 94 % 1006,0 hPa 0,0 l/m 0,8 km/h (0 Bft) O-SO 112 0 min -1,2 C 0,6 C 0,0 km/h (0 Bft)
10.12.2021 00:45 0,4 C 6,1 C 0,5 C 0,7 C 0,7 C 0,3 C 89 % 94 % 1006,0 hPa 0,0 l/m 0,6 km/h (0 Bft) S 180 0 min -1,2 C 0,7 C 5,0 km/h (1 Bft)
10.12.2021 00:50 0,4 C 6,1 C 0,5 C 0,6 C 0,6 C 0,2 C 89 % 94 % 1005,9 hPa 0,0 l/m 0,2 km/h (0 Bft) O-NO 67 0 min -1,2 C 0,6 C 0,0 km/h (0 Bft)
10.12.2021 00:55 0,4 C 6,2 C 0,4 C 0,5 C 0,5 C 0,1 C 89 % 94 % 1005,9 hPa 0,0 l/m 0,0 km/h (0 Bft) O-NO 67 0 min -1,2 C 0,5 C 0,0 km/h (0 Bft)
10.12.2021 01:00 0,4 C 6,2 C 0,3 C 0,4 C 0,4 C 0,0 C 89 % 94 % 1005,9 hPa 0,0 l/m 0,0 km/h (0 Bft) O 90 0 min -1,2 C 0,4 C 0,0 km/h (0 Bft)
10.12.2021 01:05 0,3 C 6,2 C 0,3 C 0,4 C 0,4 C 0,1 C 89 % 94 % 1005,9 hPa 0,0 l/m 0,0 km/h (0 Bft) O-NO 67 0 min -1,3 C 0,4 C 0,0 km/h (0 Bft)
10.12.2021 01:10 0,3 C 6,2 C 0,3 C 0,4 C 0,4 C 0,1 C 89 % 95 % 1005,6 hPa 0,0 l/m 0,0 km/h (0 Bft) O-NO 67 0 min -1,3 C 0,4 C 0,0 km/h (0 Bft)
10.12.2021 01:15 0,3 C 6,2 C 0,3 C 0,4 C 0,4 C 0,1 C 89 % 94 % 1005,6 hPa 0,0 l/m 0,0 km/h (0 Bft) O-NO 67 0 min -1,3 C 0,4 C 0,0 km/h (0 Bft)
10.12.2021 01:20 0,3 C 6,2 C 0,3 C 0,4 C 0,4 C 0,1 C 89 % 95 % 1005,6 hPa 0,0 l/m 0,2 km/h (0 Bft) S 180 0 min -1,3 C 0,4 C 0,0 km/h (0 Bft)
10.12.2021 01:25 0,3 C 6,2 C 0,3 C 0,4 C 0,4 C 0,1 C 89 % 95 % 1005,6 hPa 0,0 l/m 0,3 km/h (0 Bft) S-SO 157 0 min -1,3 C 0,4 C 0,0 km/h (0 Bft)
10.12.2021 01:30 0,3 C 6,2 C 0,3 C 0,3 C 0,3 C 0,0 C 89 % 95 % 1005,4 hPa 0,0 l/m 0,0 km/h (0 Bft) SW 225 0 min -1,3 C 0,3 C 0,0 km/h (0 Bft)
10.12.2021 01:35 0,3 C 6,2 C 0,2 C 0,3 C 0,3 C 0,0 C 89 % 94 % 1005,4 hPa 0,0 l/m 0,0 km/h (0 Bft) SO 135 0 min -1,3 C 0,3 C 0,0 km/h (0 Bft)
10.12.2021 01:40 0,2 C 6,2 C 0,1 C 0,2 C 0,2 C 0,0 C 89 % 94 % 1005,4 hPa 0,0 l/m 0,0 km/h (0 Bft) SO 135 0 min -1,4 C 0,2 C 0,0 km/h (0 Bft)
10.12.2021 01:45 0,3 C 6,2 C 0,2 C 0,3 C 0,2 C 0,0 C 89 % 94 % 1005,4 hPa 0,0 l/m 0,0 km/h (0 Bft) SO 135 0 min -1,3 C 0,2 C 0,0 km/h (0 Bft)
10.12.2021 01:50 0,3 C 6,2 C 0,1 C 0,2 C 0,1 C 0,0 C 89 % 94 % 1005,5 hPa 0,0 l/m 0,0 km/h (0 Bft) SO 135 0 min -1,3 C 0,1 C 0,0 km/h (0 Bft)
10.12.2021 01:55 0,3 C 6,2 C 0,1 C 0,2 C 0,1 C 0,0 C 89 % 94 % 1005,5 hPa 0,0 l/m 0,2 km/h (0 Bft) SO 135 0 min -1,3 C 0,1 C 2,4 km/h (1 Bft)
10.12.2021 02:00 0,3 C 6,2 C 0,1 C 0,2 C 0,1 C 0,0 C 89 % 94 % 1005,5 hPa 0,0 l/m 0,2 km/h (0 Bft) SO 135 0 min -1,3 C 0,1 C 0,0 km/h (0 Bft)
10.12.2021 02:05 0,1 C 6,2 C 0,0 C 0,1 C 0,0 C 0,0 C 89 % 94 % 1005,5 hPa 0,0 l/m 0,2 km/h (0 Bft) SO 135 0 min -1,5 C 0,0 C 0,0 km/h (0 Bft)
10.12.2021 02:10 0,1 C 6,2 C -0,1 C 0,0 C -0,2 C 0,0 C 89 % 94 % 1005,1 hPa 0,0 l/m 0,0 km/h (0 Bft) SO 135 0 min -1,5 C -0,2 C 0,0 km/h (0 Bft)
10.12.2021 02:15 0,0 C 6,2 C -0,2 C -0,1 C -0,4 C 0,0 C 89 % 94 % 1005,1 hPa 0,0 l/m 0,0 km/h (0 Bft) SO 135 0 min -1,6 C -0,4 C 0,0 km/h (0 Bft)
10.12.2021 02:20 0,1 C 6,2 C -0,3 C -0,1 C -0,5 C 0,0 C 89 % 94 % 1005,1 hPa 0,0 l/m 0,0 km/h (0 Bft) SO 135 0 min -1,5 C -0,5 C 0,0 km/h (0 Bft)
10.12.2021 02:25 -0,1 C 6,2 C -0,5 C -0,3 C -0,7 C 0,0 C 89 % 94 % 1005,1 hPa 0,0 l/m 0,0 km/h (0 Bft) SO 135 0 min -1,7 C -0,7 C 0,0 km/h (0 Bft)
10.12.2021 02:30 -0,1 C 6,2 C -0,5 C -0,4 C -0,9 C 0,0 C 89 % 94 % 1005,1 hPa 0,0 l/m 0,0 km/h (0 Bft) SO 135 0 min -1,7 C -0,9 C 0,0 km/h (0 Bft)
10.12.2021 02:35 -0,2 C 6,2 C -0,5 C -0,5 C -1,0 C 0,0 C 89 % 94 % 1005,1 hPa 0,0 l/m 0,0 km/h (0 Bft) SO 135 0 min -1,8 C -1,0 C 0,0 km/h (0 Bft)
10.12.2021 02:40 -0,1 C 6,2 C -0,5 C -0,4 C -1,0 C 0,0 C 89 % 94 % 1005,1 hPa 0,0 l/m 0,0 km/h (0 Bft) SO 135 0 min -1,7 C -1,0 C 0,0 km/h (0 Bft)
10.12.2021 02:45 -0,3 C 6,2 C -0,7 C -0,5 C -1,0 C 0,0 C 89 % 94 % 1005,1 hPa 0,0 l/m 0,0 km/h (0 Bft) SO 135 0 min -1,9 C -1,0 C 0,0 km/h (0 Bft)
10.12.2021 02:50 -0,3 C 6,2 C -0,7 C -0,5 C -1,0 C 0,0 C 89 % 94 % 1004,2 hPa 0,0 l/m 0,0 km/h (0 Bft) SO 135 0 min -1,9 C -1,0 C 0,0 km/h (0 Bft)
10.12.2021 02:55 -0,3 C 6,2 C -0,7 C -0,5 C -0,9 C 0,0 C 89 % 94 % 1004,2 hPa 0,0 l/m 0,0 km/h (0 Bft) SO 135 0 min -1,9 C -0,9 C 0,0 km/h (0 Bft)
10.12.2021 03:00 -0,4 C 6,2 C -0,7 C -0,5 C -0,7 C 0,0 C 89 % 94 % 1004,2 hPa 0,0 l/m 0,2 km/h (0 Bft) SO 135 0 min -2,0 C -0,7 C 0,0 km/h (0 Bft)
10.12.2021 03:05 -0,3 C 6,2 C -0,5 C -0,4 C -0,5 C 0,0 C 89 % 94 % 1004,2 hPa 0,0 l/m 0,6 km/h (0 Bft) SO 135 0 min -1,9 C -0,5 C 0,0 km/h (0 Bft)
10.12.2021 03:10 -0,3 C 6,2 C -0,4 C -0,3 C -0,4 C 0,0 C 89 % 94 % 1003,9 hPa 0,0 l/m 0,5 km/h (0 Bft) SO 135 0 min -1,9 C -0,4 C 0,0 km/h (0 Bft)
10.12.2021 03:15 -0,3 C 6,2 C -0,5 C -0,3 C -0,4 C 0,0 C 89 % 94 % 1003,9 hPa 0,0 l/m 0,0 km/h (0 Bft) SO 135 0 min -1,9 C -0,4 C 0,0 km/h (0 Bft)
10.12.2021 03:20 -0,4 C 6,2 C -0,5 C -0,4 C -0,4 C 0,0 C 89 % 94 % 1003,9 hPa 0,0 l/m 0,0 km/h (0 Bft) SO 135 0 min -2,0 C -0,4 C 0,0 km/h (0 Bft)
10.12.2021 03:25 -0,4 C 6,2 C -0,5 C -0,4 C -0,4 C 0,0 C 89 % 94 % 1003,9 hPa 0,0 l/m 0,0 km/h (0 Bft) SO 135 0 min -2,0 C -0,4 C 0,0 km/h (0 Bft)
10.12.2021 03:30 -0,5 C 6,2 C -0,5 C -0,5 C -0,5 C 0,0 C 89 % 94 % 1003,7 hPa 0,0 l/m 0,0 km/h (0 Bft) SO 135 0 min -2,1 C -0,5 C 0,0 km/h (0 Bft)
10.12.2021 03:35 -0,5 C 6,2 C -0,5 C -0,5 C -0,5 C 0,0 C 89 % 94 % 1003,7 hPa 0,0 l/m 0,0 km/h (0 Bft) SO 135 0 min -2,1 C -0,5 C 0,0 km/h (0 Bft)
10.12.2021 03:40 -0,5 C 6,2 C -0,4 C -0,5 C -0,5 C 0,0 C 89 % 94 % 1003,7 hPa 0,0 l/m 0,0 km/h (0 Bft) SO 135 0 min -2,1 C -0,5 C 0,0 km/h (0 Bft)
10.12.2021 03:45 -0,5 C 6,2 C -0,4 C -0,5 C -0,5 C 0,0 C 89 % 94 % 1003,7 hPa 0,0 l/m 0,0 km/h (0 Bft) SO 135 0 min -2,1 C -0,5 C 0,0 km/h (0 Bft)
10.12.2021 03:50 -0,5 C 6,2 C -0,4 C -0,4 C -0,4 C 0,1 C 89 % 94 % 1003,4 hPa 0,0 l/m 0,0 km/h (0 Bft) SO 135 0 min -2,1 C -0,4 C 0,0 km/h (0 Bft)
10.12.2021 03:55 -0,5 C 6,2 C -0,4 C -0,3 C -0,3 C 0,2 C 89 % 94 % 1003,4 hPa 0,0 l/m 0,0 km/h (0 Bft) SO 135 0 min -2,1 C -0,3 C 0,0 km/h (0 Bft)
10.12.2021 04:00 -0,5 C 6,2 C -0,4 C -0,3 C -0,3 C 0,2 C 89 % 94 % 1003,4 hPa 0,0 l/m 0,0 km/h (0 Bft) SO 135 0 min -2,1 C -0,3 C 0,0 km/h (0 Bft)
10.12.2021 04:05 -0,5 C 6,2 C -0,4 C -0,3 C -0,3 C 0,2 C 89 % 94 % 1003,4 hPa 0,0 l/m 0,0 km/h (0 Bft) SO 135 0 min -2,1 C -0,3 C 0,0 km/h (0 Bft)
10.12.2021 04:10 -0,5 C 6,2 C -0,4 C -0,3 C -0,3 C 0,2 C 89 % 94 % 1002,9 hPa 0,0 l/m 0,0 km/h (0 Bft) SO 135 0 min -2,1 C -0,3 C 0,0 km/h (0 Bft)
10.12.2021 04:15 -0,5 C 6,2 C -0,3 C -0,2 C -0,2 C 0,3 C 89 % 94 % 1002,9 hPa 0,0 l/m 0,0 km/h (0 Bft) SO 135 0 min -2,1 C -0,2 C 0,0 km/h (0 Bft)
10.12.2021 04:20 -0,5 C 6,2 C -0,3 C -0,2 C -0,2 C 0,3 C 89 % 94 % 1002,9 hPa 0,0 l/m 0,0 km/h (0 Bft) SO 135 0 min -2,1 C -0,2 C 0,0 km/h (0 Bft)
10.12.2021 04:25 -0,5 C 6,2 C -0,3 C -0,1 C -0,1 C 0,4 C 89 % 94 % 1002,9 hPa 0,0 l/m 0,0 km/h (0 Bft) SO 135 0 min -2,1 C -0,1 C 0,0 km/h (0 Bft)
10.12.2021 04:30 -0,5 C 6,2 C -0,2 C -0,1 C -0,1 C 0,4 C 89 % 94 % 1002,9 hPa 0,0 l/m 0,0 km/h (0 Bft) SO 135 0 min -2,1 C -0,1 C 0,0 km/h (0 Bft)
10.12.2021 04:35 -0,5 C 6,2 C -0,2 C 0,0 C 0,0 C 0,5 C 89 % 94 % 1002,9 hPa 0,0 l/m 0,0 km/h (0 Bft) SO 135 0 min -2,1 C 0,0 C 0,0 km/h (0 Bft)
10.12.2021 04:40 -0,5 C 6,2 C -0,2 C -0,1 C -0,1 C 0,4 C 89 % 94 % 1002,9 hPa 0,0 l/m 0,0 km/h (0 Bft) SO 135 0 min -2,1 C -0,1 C 0,0 km/h (0 Bft)
10.12.2021 04:45 -0,5 C 6,2 C -0,2 C -0,1 C -0,1 C 0,4 C 89 % 94 % 1002,9 hPa 0,0 l/m 0,0 km/h (0 Bft) SO 135 0 min -2,1 C -0,1 C 0,0 km/h (0 Bft)
10.12.2021 04:50 -0,5 C 6,2 C -0,2 C -0,1 C -0,1 C 0,4 C 89 % 94 % 1002,7 hPa 0,0 l/m 0,0 km/h (0 Bft) SO 135 0 min -2,1 C -0,1 C 0,0 km/h (0 Bft)
10.12.2021 04:55 -0,5 C 6,2 C -0,2 C -0,1 C -0,1 C 0,4 C 89 % 94 % 1002,7 hPa 0,0 l/m 0,0 km/h (0 Bft) SO 135 0 min -2,1 C -0,1 C 0,0 km/h (0 Bft)
10.12.2021 05:00 -0,5 C 6,2 C -0,2 C -0,1 C -0,1 C 0,4 C 89 % 94 % 1002,7 hPa 0,0 l/m 0,0 km/h (0 Bft) SO 135 0 min -2,1 C -0,1 C 0,0 km/h (0 Bft)
10.12.2021 05:05 -0,5 C 6,2 C -0,1 C 0,0 C 0,0 C 0,5 C 89 % 94 % 1002,7 hPa 0,0 l/m 0,0 km/h (0 Bft) SO 135 0 min -2,1 C 0,0 C 0,0 km/h (0 Bft)
10.12.2021 05:10 -0,5 C 6,2 C -0,1 C 0,1 C 0,1 C 0,6 C 89 % 94 % 1002,6 hPa 0,0 l/m 0,0 km/h (0 Bft) SO 135 0 min -2,1 C 0,1 C 0,0 km/h (0 Bft)
10.12.2021 05:15 -0,5 C 6,2 C -0,1 C 0,1 C 0,1 C 0,6 C 89 % 94 % 1002,6 hPa 0,0 l/m 0,0 km/h (0 Bft) SO 135 0 min -2,1 C 0,1 C 0,0 km/h (0 Bft)
10.12.2021 05:20 -0,5 C 6,2 C -0,1 C 0,1 C 0,1 C 0,6 C 89 % 94 % 1002,6 hPa 0,0 l/m 0,0 km/h (0 Bft) SO 135 0 min -2,1 C 0,1 C 0,0 km/h (0 Bft)
10.12.2021 05:25 -0,5 C 6,2 C -0,1 C 0,2 C 0,2 C 0,7 C 89 % 94 % 1002,6 hPa 0,0 l/m 0,0 km/h (0 Bft) SO 135 0 min -2,1 C 0,2 C 0,0 km/h (0 Bft)
10.12.2021 05:30 -0,5 C 6,3 C -0,1 C 0,2 C 0,2 C 0,7 C 89 % 94 % 1002,6 hPa 0,0 l/m 0,0 km/h (0 Bft) SO 135 0 min -2,1 C 0,2 C 0,0 km/h (0 Bft)
10.12.2021 05:35 -0,5 C 6,2 C -0,1 C 0,2 C 0,2 C 0,7 C 89 % 94 % 1002,6 hPa 0,0 l/m 0,0 km/h (0 Bft) SO 135 0 min -2,1 C 0,2 C 0,0 km/h (0 Bft)
10.12.2021 05:40 -0,5 C 6,2 C -0,1 C 0,2 C 0,2 C 0,7 C 89 % 94 % 1002,6 hPa 0,0 l/m 0,0 km/h (0 Bft) SO 135 0 min -2,1 C 0,2 C 0,0 km/h (0 Bft)
10.12.2021 05:45 -0,3 C 6,2 C 0,0 C 0,3 C 0,3 C 0,6 C 89 % 94 % 1002,6 hPa 0,0 l/m 0,0 km/h (0 Bft) SO 135 0 min -1,9 C 0,3 C 0,0 km/h (0 Bft)
10.12.2021 05:50 -0,3 C 6,3 C 0,0 C 0,3 C 0,3 C 0,6 C 89 % 94 % 1002,5 hPa 0,0 l/m 0,0 km/h (0 Bft) SO 135 0 min -1,9 C 0,3 C 0,0 km/h (0 Bft)
10.12.2021 05:55 -0,4 C 6,3 C 0,1 C 0,3 C 0,3 C 0,7 C 89 % 94 % 1002,5 hPa 0,0 l/m 0,0 km/h (0 Bft) SO 135 0 min -2,0 C 0,3 C 0,0 km/h (0 Bft)
10.12.2021 06:00 -0,4 C 6,3 C 0,1 C 0,3 C 0,3 C 0,7 C 89 % 94 % 1002,5 hPa 0,0 l/m 0,0 km/h (0 Bft) SO 135 0 min -2,0 C 0,3 C 0,0 km/h (0 Bft)
10.12.2021 06:05 -0,4 C 6,3 C 0,1 C 0,3 C 0,3 C 0,7 C 89 % 94 % 1002,5 hPa 0,0 l/m 0,0 km/h (0 Bft) SO 135 0 min -2,0 C 0,3 C 0,0 km/h (0 Bft)
10.12.2021 06:10 -0,4 C 6,2 C 0,1 C 0,3 C 0,3 C 0,7 C 89 % 94 % 1002,5 hPa 0,0 l/m 0,0 km/h (0 Bft) SO 135 0 min -2,0 C 0,3 C 0,0 km/h (0 Bft)
10.12.2021 06:15 -0,3 C 6,3 C 0,2 C 0,3 C 0,3 C 0,6 C 89 % 94 % 1002,5 hPa 0,0 l/m 0,0 km/h (0 Bft) SO 135 0 min -1,9 C 0,3 C 0,0 km/h (0 Bft)
10.12.2021 06:20 -0,3 C 6,3 C 0,2 C 0,3 C 0,3 C 0,6 C 89 % 94 % 1002,5 hPa 0,0 l/m 0,0 km/h (0 Bft) SO 135 0 min -1,9 C 0,3 C 0,0 km/h (0 Bft)
10.12.2021 06:25 -0,3 C 6,3 C 0,2 C 0,4 C 0,4 C 0,7 C 89 % 94 % 1002,5 hPa 0,0 l/m 0,0 km/h (0 Bft) SO 135 0 min -1,9 C 0,4 C 0,0 km/h (0 Bft)
10.12.2021 06:30 -0,3 C 6,3 C 0,2 C 0,4 C 0,4 C 0,7 C 89 % 94 % 1002,3 hPa 0,0 l/m 0,0 km/h (0 Bft) SO 135 0 min -1,9 C 0,4 C 0,0 km/h (0 Bft)
10.12.2021 06:35 -0,3 C 6,3 C 0,3 C 0,4 C 0,4 C 0,7 C 89 % 95 % 1002,3 hPa 0,0 l/m 0,0 km/h (0 Bft) SO 135 0 min -1,9 C 0,4 C 0,0 km/h (0 Bft)
10.12.2021 06:40 -0,3 C 6,3 C 0,3 C 0,4 C 0,4 C 0,7 C 89 % 95 % 1002,3 hPa 0,0 l/m 0,0 km/h (0 Bft) SO 135 0 min -1,9 C 0,4 C 0,0 km/h (0 Bft)
10.12.2021 06:45 -0,3 C 6,3 C 0,3 C 0,4 C 0,4 C 0,7 C 89 % 95 % 1002,3 hPa 0,0 l/m 0,0 km/h (0 Bft) SO 135 0 min -1,9 C 0,4 C 0,0 km/h (0 Bft)
10.12.2021 06:50 -0,3 C 6,3 C 0,3 C 0,4 C 0,4 C 0,7 C 89 % 95 % 1002,4 hPa 0,0 l/m 0,0 km/h (0 Bft) SO 135 0 min -1,9 C 0,4 C 0,0 km/h (0 Bft)
10.12.2021 06:55 -0,3 C 6,3 C 0,3 C 0,4 C 0,4 C 0,7 C 89 % 95 % 1002,4 hPa 0,0 l/m 0,0 km/h (0 Bft) SO 135 0 min -1,9 C 0,4 C 0,0 km/h (0 Bft)
10.12.2021 07:00 -0,3 C 6,3 C 0,3 C 0,4 C 0,4 C 0,7 C 89 % 95 % 1002,4 hPa 0,0 l/m 0,0 km/h (0 Bft) SO 135 0 min -1,9 C 0,4 C 0,0 km/h (0 Bft)
10.12.2021 07:05 -0,3 C 6,3 C 0,3 C 0,4 C 0,4 C 0,7 C 89 % 95 % 1002,4 hPa 0,0 l/m 0,0 km/h (0 Bft) SO 135 0 min -1,9 C 0,4 C 0,0 km/h (0 Bft)
10.12.2021 07:10 -0,3 C 6,3 C 0,3 C 0,4 C 0,4 C 0,7 C 89 % 95 % 1002,2 hPa 0,0 l/m 0,0 km/h (0 Bft) SO 135 0 min -1,9 C 0,4 C 0,0 km/h (0 Bft)
10.12.2021 07:15 -0,3 C 6,3 C 0,3 C 0,4 C 0,4 C 0,7 C 89 % 95 % 1002,2 hPa 0,0 l/m 0,0 km/h (0 Bft) SO 135 0 min -1,9 C 0,4 C 0,0 km/h (0 Bft)
10.12.2021 07:20 -0,3 C 6,3 C 0,3 C 0,4 C 0,4 C 0,7 C 89 % 95 % 1002,2 hPa 0,0 l/m 0,0 km/h (0 Bft) SO 135 0 min -1,9 C 0,4 C 0,0 km/h (0 Bft)
10.12.2021 07:25 -0,3 C 6,3 C 0,3 C 0,4 C 0,4 C 0,7 C 89 % 95 % 1002,2 hPa 0,0 l/m 0,0 km/h (0 Bft) SO 135 0 min -1,9 C 0,4 C 0,0 km/h (0 Bft)
10.12.2021 07:30 -0,3 C 6,3 C 0,3 C 0,5 C 0,5 C 0,8 C 89 % 95 % 1002,2 hPa 0,0 l/m 0,0 km/h (0 Bft) SO 135 0 min -1,9 C 0,5 C 0,0 km/h (0 Bft)
10.12.2021 07:35 -0,3 C 6,3 C 0,3 C 0,5 C 0,5 C 0,8 C 89 % 95 % 1002,2 hPa 0,0 l/m 0,0 km/h (0 Bft) SO 135 0 min -1,9 C 0,5 C 0,0 km/h (0 Bft)
10.12.2021 07:40 -0,3 C 6,3 C 0,3 C 0,5 C 0,5 C 0,8 C 89 % 95 % 1002,2 hPa 0,0 l/m 0,0 km/h (0 Bft) SO 135 0 min -1,9 C 0,5 C 0,0 km/h (0 Bft)
10.12.2021 07:45 -0,3 C 6,3 C 0,3 C 0,5 C 0,5 C 0,8 C 89 % 95 % 1002,2 hPa 0,0 l/m 0,0 km/h (0 Bft) SO 135 0 min -1,9 C 0,5 C 0,0 km/h (0 Bft)
10.12.2021 07:50 -0,3 C 6,3 C 0,3 C 0,5 C 0,5 C 0,8 C 89 % 95 % 1002,2 hPa 0,0 l/m 0,0 km/h (0 Bft) SO 135 0 min -1,9 C 0,5 C 0,0 km/h (0 Bft)
10.12.2021 07:55 -0,3 C 6,3 C 0,3 C 0,5 C 0,5 C 0,8 C 89 % 95 % 1002,2 hPa 0,0 l/m 0,0 km/h (0 Bft) W 270 0 min -1,9 C 0,5 C 0,0 km/h (0 Bft)
10.12.2021 08:00 -0,3 C 6,3 C 0,3 C 0,4 C 0,4 C 0,7 C 89 % 95 % 1002,2 hPa 0,0 l/m 0,3 km/h (0 Bft) NW 315 0 min -1,9 C 0,4 C 0,0 km/h (0 Bft)
10.12.2021 08:05 -0,3 C 6,3 C 0,3 C 0,4 C 0,4 C 0,7 C 89 % 95 % 1002,2 hPa 0,0 l/m 0,3 km/h (0 Bft) W-NW 292 0 min -1,9 C 0,4 C 0,0 km/h (0 Bft)
10.12.2021 08:10 -0,3 C 6,3 C 0,3 C 0,5 C 0,5 C 0,8 C 89 % 95 % 1001,9 hPa 0,0 l/m 0,3 km/h (0 Bft) SO 135 0 min -1,9 C 0,5 C 0,0 km/h (0 Bft)
10.12.2021 08:15 -0,1 C 6,3 C 0,4 C 0,5 C 0,5 C 0,6 C 89 % 95 % 1001,9 hPa 0,0 l/m 0,3 km/h (0 Bft) SO 135 5 min -1,7 C 0,5 C 0,0 km/h (0 Bft)
10.12.2021 08:20 -0,3 C 6,3 C 0,4 C 0,5 C 0,5 C 0,8 C 89 % 95 % 1001,9 hPa 0,0 l/m 0,0 km/h (0 Bft) SO 135 5 min -1,9 C 0,5 C 0,0 km/h (0 Bft)
10.12.2021 08:25 -0,1 C 6,3 C 0,5 C 0,6 C 0,6 C 0,7 C 89 % 95 % 1001,9 hPa 0,0 l/m 0,0 km/h (0 Bft) O-NO 67 5 min -1,7 C 0,6 C 0,0 km/h (0 Bft)
10.12.2021 08:30 -0,1 C 6,3 C 0,5 C 0,7 C 0,7 C 0,8 C 89 % 95 % 1001,9 hPa 0,0 l/m 0,0 km/h (0 Bft) O-NO 67 5 min -1,7 C 0,7 C 0,0 km/h (0 Bft)
10.12.2021 08:35 -0,2 C 6,3 C 0,5 C 0,7 C 0,7 C 0,9 C 89 % 95 % 1001,9 hPa 0,0 l/m 0,0 km/h (0 Bft) O-NO 67 5 min -1,8 C 0,7 C 0,0 km/h (0 Bft)
10.12.2021 08:40 -0,2 C 6,3 C 0,5 C 0,7 C 0,7 C 0,9 C 89 % 95 % 1001,9 hPa 0,0 l/m 0,0 km/h (0 Bft) O 90 5 min -1,8 C 0,7 C 0,0 km/h (0 Bft)
10.12.2021 08:45 -0,1 C 6,2 C 0,6 C 0,7 C 0,7 C 0,8 C 89 % 95 % 1001,9 hPa 0,0 l/m 0,0 km/h (0 Bft) NO 45 5 min -1,7 C 0,7 C 0,0 km/h (0 Bft)
10.12.2021 08:50 -0,1 C 6,2 C 0,6 C 0,7 C 0,7 C 0,8 C 89 % 95 % 1001,8 hPa 0,0 l/m 0,0 km/h (0 Bft) NO 45 0 min -1,7 C 0,7 C 0,0 km/h (0 Bft)
10.12.2021 08:55 -0,1 C 6,2 C 0,7 C 0,8 C 0,8 C 0,9 C 89 % 95 % 1001,8 hPa 0,0 l/m 0,0 km/h (0 Bft) NO 45 0 min -1,7 C 0,8 C 0,0 km/h (0 Bft)
10.12.2021 09:00 -0,1 C 6,2 C 0,7 C 0,8 C 0,8 C 0,9 C 89 % 95 % 1001,8 hPa 0,0 l/m 0,0 km/h (0 Bft) NO 45 0 min -1,7 C 0,8 C 0,0 km/h (0 Bft)
10.12.2021 09:05 -0,1 C 6,2 C 0,8 C 1,0 C 1,0 C 1,1 C 89 % 95 % 1001,8 hPa 0,0 l/m 0,0 km/h (0 Bft) NO 45 0 min -1,7 C 1,0 C 0,0 km/h (0 Bft)
10.12.2021 09:10 0,1 C 6,2 C 0,8 C 1,1 C 1,1 C 1,0 C 89 % 95 % 1001,8 hPa 0,0 l/m 0,0 km/h (0 Bft) SO 135 0 min -1,5 C 1,1 C 0,0 km/h (0 Bft)
10.12.2021 09:15 0,0 C 6,2 C 0,9 C 1,2 C 1,2 C 1,2 C 89 % 95 % 1001,8 hPa 0,0 l/m 0,0 km/h (0 Bft) SO 135 0 min -1,6 C 1,2 C 0,0 km/h (0 Bft)
10.12.2021 09:20 0,0 C 6,2 C 0,9 C 1,3 C 1,3 C 1,3 C 89 % 95 % 1001,8 hPa 0,0 l/m 0,0 km/h (0 Bft) SO 135 0 min -1,6 C 1,3 C 0,0 km/h (0 Bft)
10.12.2021 09:25 0,0 C 6,2 C 1,0 C 1,4 C 1,4 C 1,4 C 89 % 95 % 1001,8 hPa 0,0 l/m 0,0 km/h (0 Bft) SO 135 0 min -1,6 C 1,4 C 0,0 km/h (0 Bft)
10.12.2021 09:30 0,0 C 6,4 C 1,0 C 1,4 C 1,4 C 1,4 C 89 % 95 % 1001,8 hPa 0,0 l/m 0,0 km/h (0 Bft) SO 135 0 min -1,6 C 1,4 C 0,0 km/h (0 Bft)
10.12.2021 09:35 0,0 C 6,4 C 1,1 C 1,4 C 1,4 C 1,4 C 89 % 95 % 1001,8 hPa 0,0 l/m 0,0 km/h (0 Bft) SO 135 0 min -1,6 C 1,4 C 0,0 km/h (0 Bft)
10.12.2021 09:40 0,1 C 6,4 C 1,1 C 1,4 C 1,4 C 1,3 C 89 % 95 % 1001,8 hPa 0,0 l/m 0,0 km/h (0 Bft) SO 135 0 min -1,5 C 1,4 C 0,0 km/h (0 Bft)
10.12.2021 09:45 0,1 C 6,4 C 1,2 C 1,5 C 1,5 C 1,4 C 89 % 95 % 1001,8 hPa 0,0 l/m 0,0 km/h (0 Bft) SO 135 0 min -1,5 C 1,5 C 0,0 km/h (0 Bft)
10.12.2021 09:50 0,1 C 6,4 C 1,2 C 1,7 C 1,7 C 1,6 C 89 % 95 % 1001,3 hPa 0,0 l/m 0,0 km/h (0 Bft) SO 135 0 min -1,5 C 1,7 C 0,0 km/h (0 Bft)
10.12.2021 09:55 0,3 C 6,4 C 1,3 C 1,8 C 1,8 C 1,5 C 89 % 95 % 1001,3 hPa 0,0 l/m 0,0 km/h (0 Bft) SO 135 0 min -1,3 C 1,8 C 0,0 km/h (0 Bft)
10.12.2021 10:00 0,3 C 6,4 C 1,5 C 2,0 C 2,0 C 1,7 C 89 % 95 % 1001,3 hPa 0,0 l/m 0,0 km/h (0 Bft) SO 135 0 min -1,3 C 2,0 C 0,0 km/h (0 Bft)
10.12.2021 10:05 0,3 C 6,4 C 1,6 C 2,2 C 2,2 C 1,9 C 89 % 94 % 1001,3 hPa 0,0 l/m 0,0 km/h (0 Bft) O-NO 67 0 min -1,3 C 2,2 C 0,0 km/h (0 Bft)
10.12.2021 10:10 0,3 C 6,4 C 1,7 C 2,3 C 2,3 C 2,0 C 89 % 94 % 1000,9 hPa 0,0 l/m 0,0 km/h (0 Bft) O-NO 67 0 min -1,3 C 2,3 C 0,0 km/h (0 Bft)
10.12.2021 10:15 0,4 C 6,4 C 2,0 C 2,6 C 2,6 C 2,2 C 89 % 94 % 1000,9 hPa 0,0 l/m 0,0 km/h (0 Bft) SO 135 0 min -1,2 C 2,6 C 0,0 km/h (0 Bft)
10.12.2021 10:20 0,4 C 6,2 C 2,2 C 3,1 C 3,1 C 2,7 C 89 % 94 % 1000,9 hPa 0,7 l/m 0,2 km/h (0 Bft) W 270 0 min -1,2 C 3,1 C 0,0 km/h (0 Bft)
10.12.2021 10:25 0,5 C 6,4 C 2,5 C 3,6 C 3,6 C 3,1 C 89 % 95 % 1000,9 hPa 0,0 l/m 0,6 km/h (0 Bft) W-SW 247 0 min -1,1 C 3,6 C 0,0 km/h (0 Bft)
10.12.2021 10:30 0,7 C 6,4 C 2,7 C 3,9 C 3,9 C 3,2 C 89 % 95 % 1000,7 hPa 0,0 l/m 0,5 km/h (0 Bft) W-SW 247 0 min -0,9 C 3,9 C 0,0 km/h (0 Bft)
10.12.2021 10:35 0,8 C 6,4 C 2,9 C 4,5 C 4,5 C 3,7 C 89 % 95 % 1000,7 hPa 0,0 l/m 0,0 km/h (0 Bft) SW 225 5 min -0,8 C 4,5 C 0,0 km/h (0 Bft)
10.12.2021 10:40 0,9 C 6,3 C 2,9 C 4,7 C 4,7 C 3,8 C 89 % 95 % 1000,7 hPa 0,0 l/m 0,0 km/h (0 Bft) W 270 5 min -0,7 C 4,7 C 0,0 km/h (0 Bft)
10.12.2021 10:45 0,9 C 6,3 C 3,0 C 4,8 C 4,8 C 3,9 C 89 % 94 % 1000,7 hPa 0,0 l/m 0,0 km/h (0 Bft) W-SW 247 5 min -0,7 C 4,8 C 0,0 km/h (0 Bft)
10.12.2021 10:50 1,1 C 6,2 C 3,2 C 5,2 C 5,2 C 4,1 C 89 % 94 % 1000,4 hPa 0,0 l/m 0,0 km/h (0 Bft) S 180 5 min -0,5 C 5,2 C 0,0 km/h (0 Bft)
10.12.2021 10:55 1,2 C 6,2 C 3,5 C 5,7 C 5,7 C 4,5 C 89 % 94 % 1000,4 hPa 0,0 l/m 0,2 km/h (0 Bft) S 180 5 min -0,4 C 5,7 C 0,0 km/h (0 Bft)
10.12.2021 11:00 1,3 C 6,2 C 3,5 C 5,7 C 5,7 C 4,4 C 89 % 94 % 1000,4 hPa 0,0 l/m 0,3 km/h (0 Bft) S-SO 157 5 min -0,3 C 5,7 C 0,0 km/h (0 Bft)
10.12.2021 11:05 1,5 C 6,2 C 3,5 C 6,2 C 6,2 C 4,7 C 89 % 94 % 1000,4 hPa 0,0 l/m 1,0 km/h (0 Bft) O 90 5 min -0,1 C 6,2 C 2,3 km/h (1 Bft)
10.12.2021 11:10 1,6 C 6,2 C 3,6 C 6,4 C 6,4 C 4,8 C 89 % 93 % 1000,1 hPa 0,0 l/m 1,0 km/h (0 Bft) SO 135 5 min -0,0 C 6,4 C 0,0 km/h (0 Bft)
10.12.2021 11:15 1,8 C 6,2 C 3,8 C 6,2 C 6,2 C 4,4 C 88 % 93 % 1000,1 hPa 0,0 l/m 1,0 km/h (0 Bft) S 180 5 min 0,0 C 6,2 C 1,6 km/h (1 Bft)
10.12.2021 11:20 2,0 C 6,2 C 3,9 C 6,2 C 6,2 C 4,2 C 88 % 93 % 1000,1 hPa 0,0 l/m 0,5 km/h (0 Bft) SW 225 5 min 0,2 C 6,2 C 3,7 km/h (1 Bft)
10.12.2021 11:25 2,3 C 6,1 C 4,0 C 7,6 C 7,6 C 5,3 C 89 % 92 % 1000,1 hPa 0,0 l/m 1,4 km/h (1 Bft) SW 225 5 min 0,7 C 7,6 C 6,8 km/h (2 Bft)
10.12.2021 11:30 2,4 C 6,1 C 3,8 C 7,9 C 7,9 C 5,5 C 89 % 91 % 1000,1 hPa 0,7 l/m 2,7 km/h (1 Bft) SO 135 5 min 0,8 C 7,9 C 6,3 km/h (2 Bft)
10.12.2021 11:35 2,7 C 6,1 C 3,6 C 6,7 C 6,7 C 4,0 C 89 % 91 % 1000,1 hPa 0,0 l/m 3,5 km/h (1 Bft) S 180 5 min 1,1 C 6,7 C 8,5 km/h (2 Bft)
10.12.2021 11:40 2,8 C 6,1 C 3,5 C 6,8 C 6,8 C 4,0 C 89 % 90 % 1000,1 hPa 0,0 l/m 3,5 km/h (1 Bft) W-SW 247 5 min 1,2 C 6,8 C 2,6 km/h (1 Bft)
10.12.2021 11:45 3,1 C 6,1 C 3,4 C 6,1 C 6,1 C 3,0 C 89 % 90 % 1000,1 hPa 0,0 l/m 2,1 km/h (1 Bft) S 180 0 min 1,5 C 6,1 C 1,9 km/h (1 Bft)
10.12.2021 11:50 3,3 C 6,1 C 3,5 C 6,3 C 6,3 C 3,0 C 89 % 90 % 999,6 hPa 0,0 l/m 1,3 km/h (1 Bft) O-SO 112 0 min 1,7 C 6,3 C 1,8 km/h (1 Bft)
10.12.2021 11:55 3,6 C 6,2 C 3,6 C 6,6 C 6,6 C 3,0 C 89 % 90 % 999,6 hPa 0,0 l/m 1,6 km/h (1 Bft) O-SO 112 0 min 2,0 C 6,6 C 0,0 km/h (0 Bft)
10.12.2021 12:00 3,7 C 6,2 C 3,5 C 6,2 C 6,2 C 2,5 C 89 % 90 % 999,6 hPa 0,0 l/m 1,6 km/h (1 Bft) W-SW 247 0 min 2,1 C 6,2 C 2,6 km/h (1 Bft)
10.12.2021 12:05 3,8 C 6,2 C 3,3 C 6,1 C 6,1 C 2,3 C 89 % 89 % 999,6 hPa 0,0 l/m 1,3 km/h (1 Bft) SO 135 0 min 2,2 C 6,1 C 0,0 km/h (0 Bft)
10.12.2021 12:10 3,8 C 6,2 C 3,3 C 6,1 C 6,1 C 2,3 C 89 % 89 % 999,8 hPa 0,0 l/m 1,3 km/h (1 Bft) SO 135 0 min 2,2 C 6,1 C 0,0 km/h (0 Bft)
10.12.2021 12:15 3,9 C 6,2 C 3,1 C 5,2 C 5,2 C 1,3 C 88 % 89 % 999,8 hPa 0,0 l/m 3,5 km/h (1 Bft) O-NO 67 0 min 2,1 C 5,2 C 3,1 km/h (1 Bft)
10.12.2021 12:20 3,9 C 6,2 C 3,1 C 5,0 C 5,0 C 1,1 C 88 % 89 % 999,8 hPa 0,0 l/m 3,9 km/h (1 Bft) O-SO 112 0 min 2,1 C 5,0 C 5,6 km/h (1 Bft)
10.12.2021 12:25 3,9 C 6,2 C 3,2 C 5,6 C 5,6 C 1,7 C 88 % 89 % 999,8 hPa 0,0 l/m 1,6 km/h (1 Bft) N-NO 22 0 min 2,1 C 5,6 C 0,0 km/h (0 Bft)
10.12.2021 12:30 3,8 C 6,2 C 3,3 C 5,4 C 5,4 C 1,6 C 87 % 89 % 999,8 hPa 0,0 l/m 1,6 km/h (1 Bft) O-NO 67 0 min 1,8 C 5,4 C 9,8 km/h (2 Bft)
10.12.2021 12:35 3,9 C 6,2 C 3,2 C 3,8 C 3,7 C 0,0 C 87 % 89 % 999,8 hPa 0,0 l/m 5,6 km/h (1 Bft) O-NO 67 0 min 1,9 C 2,4 C 10,0 km/h (2 Bft)
10.12.2021 12:40 3,6 C 6,2 C 3,1 C 3,7 C 2,8 C 0,1 C 86 % 88 % 999,8 hPa 0,0 l/m 7,7 km/h (2 Bft) NO 45 0 min 1,5 C 0,6 C 9,7 km/h (2 Bft)
10.12.2021 12:45 3,6 C 6,2 C 3,1 C 3,4 C 2,9 C 0,0 C 86 % 88 % 999,8 hPa 0,0 l/m 7,2 km/h (2 Bft) O 90 0 min 1,5 C 0,9 C 11,1 km/h (2 Bft)
10.12.2021 12:50 3,7 C 6,2 C 3,1 C 3,6 C 3,3 C 0,0 C 85 % 89 % 999,6 hPa 0,0 l/m 6,3 km/h (2 Bft) NO 45 0 min 1,4 C 1,7 C 5,5 km/h (1 Bft)
10.12.2021 12:55 3,7 C 6,2 C 3,1 C 4,2 C 4,2 C 0,5 C 85 % 89 % 999,6 hPa 0,0 l/m 5,1 km/h (1 Bft) O 90 0 min 1,4 C 3,1 C 4,2 km/h (1 Bft)
10.12.2021 13:00 3,8 C 6,3 C 3,1 C 4,5 C 4,5 C 0,7 C 85 % 89 % 999,6 hPa 0,0 l/m 4,5 km/h (1 Bft) O 90 0 min 1,5 C 4,5 C 0,0 km/h (0 Bft)
10.12.2021 13:05 3,9 C 6,3 C 3,1 C 5,4 C 5,4 C 1,5 C 85 % 89 % 999,6 hPa 0,0 l/m 2,6 km/h (1 Bft) W 270 0 min 1,6 C 5,4 C 0,0 km/h (0 Bft)
10.12.2021 13:10 3,9 C 6,3 C 3,1 C 5,6 C 5,6 C 1,7 C 85 % 89 % 999,4 hPa 0,0 l/m 1,6 km/h (1 Bft) O-NO 67 0 min 1,6 C 5,6 C 1,8 km/h (1 Bft)
10.12.2021 13:15 4,0 C 6,3 C 3,2 C 5,9 C 5,9 C 1,9 C 85 % 89 % 999,4 hPa 0,0 l/m 1,4 km/h (1 Bft) S 180 0 min 1,7 C 5,9 C 2,7 km/h (1 Bft)
10.12.2021 13:20 4,1 C 6,3 C 3,3 C 6,2 C 6,2 C 2,1 C 85 % 89 % 999,4 hPa 0,0 l/m 1,4 km/h (1 Bft) O-NO 67 0 min 1,8 C 6,2 C 2,4 km/h (1 Bft)
10.12.2021 13:25 4,3 C 6,3 C 3,2 C 6,6 C 6,6 C 2,3 C 84 % 88 % 999,4 hPa 0,0 l/m 1,8 km/h (1 Bft) O 90 0 min 1,8 C 6,6 C 3,1 km/h (1 Bft)
10.12.2021 13:30 4,3 C 6,3 C 3,3 C 6,6 C 6,6 C 2,3 C 84 % 88 % 999,8 hPa 0,0 l/m 1,4 km/h (1 Bft) O-NO 67 0 min 1,8 C 6,6 C 1,6 km/h (1 Bft)
10.12.2021 13:35 4,3 C 6,4 C 3,3 C 6,6 C 6,6 C 2,3 C 84 % 88 % 999,8 hPa 0,0 l/m 0,6 km/h (0 Bft) O-SO 112 0 min 1,8 C 6,6 C 0,0 km/h (0 Bft)
10.12.2021 13:40 4,4 C 6,4 C 3,4 C 7,2 C 7,2 C 2,8 C 84 % 88 % 999,8 hPa 0,0 l/m 0,5 km/h (0 Bft) O-SO 112 0 min 1,9 C 7,2 C 0,0 km/h (0 Bft)
10.12.2021 13:45 4,5 C 6,4 C 3,6 C 7,5 C 7,5 C 3,0 C 83 % 87 % 999,8 hPa 0,0 l/m 0,3 km/h (0 Bft) O-NO 67 0 min 1,9 C 7,5 C 0,0 km/h (0 Bft)
10.12.2021 13:50 4,5 C 6,3 C 3,5 C 7,4 C 7,4 C 2,9 C 83 % 87 % 999,8 hPa 0,0 l/m 0,5 km/h (0 Bft) O-NO 67 0 min 1,9 C 7,4 C 3,5 km/h (1 Bft)
10.12.2021 13:55 4,4 C 6,3 C 3,4 C 6,6 C 6,6 C 2,2 C 82 % 87 % 999,8 hPa 0,0 l/m 1,4 km/h (1 Bft) O 90 0 min 1,6 C 6,6 C 2,4 km/h (1 Bft)
10.12.2021 14:00 4,5 C 6,3 C 3,3 C 6,5 C 6,5 C 2,0 C 81 % 86 % 999,8 hPa 0,0 l/m 2,3 km/h (1 Bft) O-NO 67 0 min 1,5 C 6,5 C 2,9 km/h (1 Bft)
10.12.2021 14:05 4,3 C 6,3 C 3,2 C 6,3 C 6,3 C 2,0 C 81 % 86 % 999,8 hPa 0,0 l/m 1,9 km/h (1 Bft) NO 45 0 min 1,3 C 6,3 C 2,6 km/h (1 Bft)
10.12.2021 14:10 4,3 C 6,3 C 3,2 C 6,4 C 6,4 C 2,1 C 81 % 87 % 999,6 hPa 0,0 l/m 1,8 km/h (1 Bft) N-NO 22 0 min 1,3 C 6,4 C 0,0 km/h (0 Bft)
10.12.2021 14:15 4,3 C 6,4 C 3,2 C 6,5 C 6,5 C 2,2 C 81 % 86 % 999,6 hPa 0,0 l/m 1,3 km/h (1 Bft) O-NO 67 0 min 1,3 C 6,5 C 0,0 km/h (0 Bft)
10.12.2021 14:20 4,3 C 6,2 C 3,1 C 6,9 C 6,9 C 2,6 C 80 % 86 % 999,6 hPa 0,0 l/m 1,1 km/h (1 Bft) O-SO 112 0 min 1,2 C 6,9 C 0,0 km/h (0 Bft)
10.12.2021 14:25 4,2 C 6,2 C 3,1 C 6,7 C 6,7 C 2,5 C 80 % 85 % 999,6 hPa 0,0 l/m 1,4 km/h (1 Bft) O-SO 112 0 min 1,1 C 6,7 C 2,3 km/h (1 Bft)
10.12.2021 14:30 4,1 C 6,2 C 3,1 C 6,4 C 6,4 C 2,3 C 80 % 85 % 998,9 hPa 0,0 l/m 1,4 km/h (1 Bft) O-NO 67 0 min 1,0 C 6,4 C 0,0 km/h (0 Bft)
10.12.2021 14:35 4,0 C 6,2 C 3,0 C 6,1 C 6,1 C 2,1 C 79 % 85 % 998,9 hPa 0,0 l/m 1,8 km/h (1 Bft) O-NO 67 0 min 0,7 C 6,1 C 1,9 km/h (1 Bft)
10.12.2021 14:40 4,1 C 6,2 C 2,8 C 6,0 C 6,0 C 1,9 C 79 % 85 % 998,9 hPa 0,0 l/m 1,4 km/h (1 Bft) O-NO 67 0 min 0,8 C 6,0 C 0,0 km/h (0 Bft)
10.12.2021 14:45 3,9 C 6,2 C 2,8 C 5,7 C 5,7 C 1,8 C 79 % 85 % 998,9 hPa 0,0 l/m 1,3 km/h (1 Bft) O-SO 112 0 min 0,6 C 5,7 C 2,7 km/h (1 Bft)
10.12.2021 14:50 3,8 C 6,1 C 2,8 C 5,5 C 5,5 C 1,7 C 79 % 85 % 999,3 hPa 0,0 l/m 1,1 km/h (1 Bft) O-NO 67 0 min 0,5 C 5,5 C 2,4 km/h (1 Bft)
10.12.2021 14:55 3,7 C 6,2 C 2,6 C 4,7 C 4,7 C 1,0 C 79 % 85 % 999,3 hPa 0,0 l/m 1,4 km/h (1 Bft) O 90 0 min 0,4 C 4,7 C 0,0 km/h (0 Bft)
10.12.2021 15:00 3,7 C 6,2 C 2,7 C 4,2 C 4,2 C 0,5 C 79 % 85 % 999,3 hPa 0,0 l/m 1,3 km/h (1 Bft) O-SO 112 0 min 0,4 C 4,2 C 0,0 km/h (0 Bft)
10.12.2021 15:05 3,6 C 6,2 C 2,5 C 3,7 C 3,7 C 0,1 C 79 % 85 % 999,3 hPa 0,0 l/m 0,6 km/h (0 Bft) O 90 0 min 0,3 C 3,7 C 0,0 km/h (0 Bft)
10.12.2021 15:10 3,6 C 6,2 C 2,3 C 3,6 C 3,5 C 0,0 C 79 % 85 % 999,4 hPa 0,0 l/m 0,3 km/h (0 Bft) O 90 0 min 0,3 C 3,5 C 1,6 km/h (1 Bft)
10.12.2021 15:15 3,5 C 6,2 C 2,1 C 3,4 C 3,1 C 0,0 C 79 % 86 % 999,4 hPa 0,0 l/m 0,5 km/h (0 Bft) O-NO 67 0 min 0,2 C 3,1 C 0,0 km/h (0 Bft)
10.12.2021 15:20 3,4 C 6,2 C 2,0 C 3,3 C 3,0 C 0,0 C 79 % 86 % 999,4 hPa 0,0 l/m 0,5 km/h (0 Bft) O-NO 67 0 min 0,1 C 3,0 C 0,0 km/h (0 Bft)
10.12.2021 15:25 3,3 C 6,2 C 1,9 C 3,1 C 2,8 C 0,0 C 79 % 86 % 999,4 hPa 0,0 l/m 0,3 km/h (0 Bft) O 90 0 min 0,0 C 2,8 C 0,0 km/h (0 Bft)
10.12.2021 15:30 3,2 C 6,2 C 1,8 C 3,0 C 2,6 C 0,0 C 79 % 86 % 999,6 hPa 0,0 l/m 0,5 km/h (0 Bft) O 90 0 min -0,1 C 2,6 C 0,0 km/h (0 Bft)
10.12.2021 15:35 3,2 C 6,2 C 1,7 C 3,0 C 2,5 C 0,0 C 79 % 86 % 999,6 hPa 0,0 l/m 0,8 km/h (0 Bft) O 90 0 min -0,1 C 2,5 C 1,9 km/h (1 Bft)
10.12.2021 15:40 3,1 C 6,2 C 1,6 C 2,9 C 2,4 C 0,0 C 79 % 86 % 999,6 hPa 0,0 l/m 1,0 km/h (0 Bft) O-NO 67 0 min -0,2 C 2,4 C 0,0 km/h (0 Bft)
10.12.2021 15:45 3,0 C 6,2 C 1,4 C 2,7 C 2,1 C 0,0 C 79 % 87 % 999,6 hPa 0,0 l/m 1,0 km/h (0 Bft) O-NO 67 0 min -0,3 C 2,1 C 1,8 km/h (1 Bft)
10.12.2021 15:50 2,8 C 6,2 C 1,3 C 2,5 C 2,0 C 0,0 C 79 % 87 % 999,4 hPa 0,0 l/m 0,6 km/h (0 Bft) O-NO 67 0 min -0,5 C 2,0 C 0,0 km/h (0 Bft)
10.12.2021 15:55 2,7 C 6,2 C 1,1 C 2,4 C 1,7 C 0,0 C 79 % 87 % 999,4 hPa 0,0 l/m 1,0 km/h (0 Bft) O-NO 67 0 min -0,6 C 1,7 C 2,1 km/h (1 Bft)
10.12.2021 16:00 2,7 C 6,2 C 1,0 C 2,3 C 1,5 C 0,0 C 80 % 87 % 999,4 hPa 0,0 l/m 1,1 km/h (1 Bft) O-NO 67 0 min -0,4 C 1,5 C 1,6 km/h (1 Bft)
10.12.2021 16:05 2,4 C 6,2 C 0,8 C 2,1 C 1,4 C 0,0 C 80 % 87 % 999,4 hPa 0,0 l/m 0,8 km/h (0 Bft) O-NO 67 0 min -0,7 C 1,4 C 1,8 km/h (1 Bft)
10.12.2021 16:10 2,4 C 6,2 C 0,7 C 2,0 C 1,2 C 0,0 C 80 % 87 % 999,8 hPa 0,0 l/m 0,3 km/h (0 Bft) O-NO 67 0 min -0,7 C 1,2 C 0,0 km/h (0 Bft)
10.12.2021 16:15 2,3 C 6,2 C 0,6 C 1,9 C 1,0 C 0,0 C 80 % 88 % 999,8 hPa 0,0 l/m 1,0 km/h (0 Bft) O-NO 67 0 min -0,8 C 1,0 C 0,0 km/h (0 Bft)
10.12.2021 16:20 2,1 C 6,2 C 0,6 C 1,7 C 0,9 C 0,0 C 80 % 88 % 999,8 hPa 0,0 l/m 1,8 km/h (1 Bft) O-NO 67 0 min -1,0 C 0,9 C 2,7 km/h (1 Bft)
10.12.2021 16:25 2,0 C 6,2 C 0,4 C 1,6 C 0,8 C 0,0 C 81 % 88 % 999,8 hPa 0,0 l/m 1,6 km/h (1 Bft) O-NO 67 0 min -0,9 C 0,8 C 1,6 km/h (1 Bft)
10.12.2021 16:30 1,9 C 6,2 C 0,3 C 1,5 C 0,6 C 0,0 C 81 % 88 % 999,9 hPa 0,0 l/m 1,0 km/h (0 Bft) O-NO 67 0 min -1,0 C 0,6 C 0,0 km/h (0 Bft)
10.12.2021 16:35 1,7 C 6,2 C 0,0 C 1,2 C 0,3 C 0,0 C 81 % 88 % 999,9 hPa 0,0 l/m 0,0 km/h (0 Bft) O-NO 67 0 min -1,2 C 0,3 C 0,0 km/h (0 Bft)
10.12.2021 16:40 1,6 C 6,2 C -0,2 C 1,1 C 0,1 C 0,0 C 81 % 89 % 999,9 hPa 0,0 l/m 0,0 km/h (0 Bft) O-NO 67 0 min -1,3 C 0,1 C 0,0 km/h (0 Bft)
10.12.2021 16:45 1,5 C 6,2 C -0,3 C 0,9 C -0,3 C 0,0 C 81 % 89 % 999,9 hPa 0,0 l/m 0,0 km/h (0 Bft) O-NO 67 0 min -1,4 C -0,3 C 0,0 km/h (0 Bft)
10.12.2021 16:50 1,2 C 6,3 C -0,5 C 0,6 C -0,6 C 0,0 C 81 % 88 % 1000,3 hPa 0,0 l/m 0,0 km/h (0 Bft) O-NO 67 0 min -1,7 C -0,6 C 0,0 km/h (0 Bft)
10.12.2021 16:55 1,0 C 6,3 C -0,6 C 0,4 C -0,9 C 0,0 C 81 % 89 % 1000,3 hPa 0,0 l/m 0,0 km/h (0 Bft) O-NO 67 0 min -1,9 C -0,9 C 0,0 km/h (0 Bft)
10.12.2021 17:00 0,9 C 6,3 C -0,7 C 0,2 C -1,1 C 0,0 C 81 % 89 % 1000,3 hPa 0,0 l/m 0,0 km/h (0 Bft) O-NO 67 0 min -2,0 C -1,1 C 0,0 km/h (0 Bft)
10.12.2021 17:05 0,8 C 6,3 C -0,9 C 0,2 C -1,1 C 0,0 C 82 % 89 % 1000,3 hPa 0,0 l/m 0,0 km/h (0 Bft) O-NO 67 0 min -1,9 C -1,1 C 0,0 km/h (0 Bft)
10.12.2021 17:10 0,7 C 6,3 C -0,9 C 0,0 C -1,3 C 0,0 C 82 % 90 % 1000,5 hPa 0,0 l/m 0,0 km/h (0 Bft) O-NO 67 0 min -2,0 C -1,3 C 0,0 km/h (0 Bft)
10.12.2021 17:15 0,5 C 6,3 C -1,1 C -0,2 C -1,5 C 0,0 C 82 % 90 % 1000,5 hPa 0,0 l/m 0,0 km/h (0 Bft) O-NO 67 0 min -2,2 C -1,5 C 0,0 km/h (0 Bft)
10.12.2021 17:20 0,4 C 6,3 C -1,3 C -0,3 C -1,6 C 0,0 C 82 % 90 % 1000,5 hPa 0,0 l/m 0,0 km/h (0 Bft) O-NO 67 0 min -2,3 C -1,6 C 0,0 km/h (0 Bft)
10.12.2021 17:25 0,2 C 6,4 C -1,4 C -0,5 C -1,8 C 0,0 C 82 % 90 % 1000,5 hPa 0,0 l/m 0,0 km/h (0 Bft) O-NO 67 0 min -2,5 C -1,8 C 0,0 km/h (0 Bft)
10.12.2021 17:30 0,0 C 6,3 C -1,5 C -0,6 C -1,9 C 0,0 C 83 % 90 % 1000,3 hPa 0,0 l/m 0,0 km/h (0 Bft) O-NO 67 0 min -2,5 C -1,9 C 0,0 km/h (0 Bft)
10.12.2021 17:35 -0,2 C 6,4 C -1,7 C -0,8 C -2,1 C 0,0 C 83 % 90 % 1000,3 hPa 0,0 l/m 0,0 km/h (0 Bft) O-NO 67 0 min -2,7 C -2,1 C 0,0 km/h (0 Bft)
10.12.2021 17:40 -0,3 C 6,4 C -1,8 C -1,0 C -2,3 C 0,0 C 83 % 90 % 1000,3 hPa 0,0 l/m 0,0 km/h (0 Bft) O-NO 67 0 min -2,8 C -2,3 C 0,0 km/h (0 Bft)
10.12.2021 17:45 -0,5 C 6,4 C -1,9 C -1,2 C -2,5 C 0,0 C 83 % 91 % 1000,3 hPa 0,0 l/m 0,0 km/h (0 Bft) O-NO 67 0 min -3,0 C -2,5 C 0,0 km/h (0 Bft)
10.12.2021 17:50 -0,5 C 6,4 C -2,0 C -1,2 C -2,5 C 0,0 C 83 % 91 % 1000,4 hPa 0,0 l/m 0,0 km/h (0 Bft) O-NO 67 0 min -3,0 C -2,5 C 0,0 km/h (0 Bft)
10.12.2021 17:55 -0,7 C 6,4 C -2,1 C -1,3 C -2,5 C 0,0 C 84 % 91 % 1000,4 hPa 0,0 l/m 0,0 km/h (0 Bft) O-NO 67 0 min -3,1 C -2,5 C 0,0 km/h (0 Bft)
10.12.2021 18:00 -0,8 C 6,4 C -2,2 C -1,4 C -2,6 C 0,0 C 84 % 91 % 1000,4 hPa 0,0 l/m 0,0 km/h (0 Bft) O-NO 67 0 min -3,2 C -2,6 C 0,0 km/h (0 Bft)
10.12.2021 18:05 -0,9 C 6,4 C -2,2 C -1,5 C -2,7 C 0,0 C 84 % 91 % 1000,4 hPa 0,0 l/m 0,0 km/h (0 Bft) O-NO 67 0 min -3,3 C -2,7 C 0,0 km/h (0 Bft)
10.12.2021 18:10 -1,0 C 6,4 C -2,3 C -1,6 C -2,8 C 0,0 C 84 % 92 % 1000,8 hPa 0,0 l/m 0,0 km/h (0 Bft) O-NO 67 0 min -3,4 C -2,8 C 0,0 km/h (0 Bft)
10.12.2021 18:15 -1,1 C 6,4 C -2,4 C -1,7 C -3,0 C 0,0 C 84 % 92 % 1000,8 hPa 0,0 l/m 0,0 km/h (0 Bft) O-NO 67 0 min -3,4 C -3,0 C 0,0 km/h (0 Bft)
10.12.2021 18:20 -1,2 C 6,4 C -2,5 C -1,8 C -3,0 C 0,0 C 84 % 92 % 1000,8 hPa 0,0 l/m 0,0 km/h (0 Bft) O-NO 67 0 min -3,5 C -3,0 C 0,0 km/h (0 Bft)
10.12.2021 18:25 -1,3 C 6,4 C -2,5 C -1,9 C -3,1 C 0,0 C 84 % 92 % 1000,8 hPa 0,0 l/m 0,0 km/h (0 Bft) O-NO 67 0 min -3,6 C -3,1 C 0,0 km/h (0 Bft)
10.12.2021 18:30 -1,3 C 6,4 C -2,5 C -1,9 C -3,0 C 0,0 C 85 % 92 % 1001,0 hPa 0,0 l/m 0,0 km/h (0 Bft) O-NO 67 0 min -3,5 C -3,0 C 0,0 km/h (0 Bft)
10.12.2021 18:35 -1,4 C 6,4 C -2,5 C -2,0 C -3,1 C 0,0 C 85 % 92 % 1001,0 hPa 0,0 l/m 0,0 km/h (0 Bft) O-NO 67 0 min -3,6 C -3,1 C 0,0 km/h (0 Bft)
10.12.2021 18:40 -1,5 C 6,4 C -2,6 C -2,1 C -3,2 C 0,0 C 85 % 92 % 1001,0 hPa 0,0 l/m 0,0 km/h (0 Bft) O-NO 67 0 min -3,7 C -3,2 C 0,0 km/h (0 Bft)
10.12.2021 18:45 -1,6 C 6,4 C -2,7 C -2,2 C -3,3 C 0,0 C 85 % 92 % 1001,0 hPa 0,0 l/m 0,0 km/h (0 Bft) O-NO 67 0 min -3,8 C -3,3 C 0,0 km/h (0 Bft)
10.12.2021 18:50 -1,7 C 6,4 C -2,7 C -2,2 C -3,2 C 0,0 C 85 % 92 % 1001,1 hPa 0,0 l/m 0,0 km/h (0 Bft) O-NO 67 0 min -3,9 C -3,2 C 0,0 km/h (0 Bft)
10.12.2021 18:55 -1,7 C 6,4 C -2,7 C -2,2 C -3,2 C 0,0 C 85 % 93 % 1001,1 hPa 0,0 l/m 0,0 km/h (0 Bft) O-NO 67 0 min -3,9 C -3,2 C 0,0 km/h (0 Bft)
10.12.2021 19:00 -1,7 C 6,4 C -2,7 C -2,2 C -3,1 C 0,0 C 85 % 93 % 1001,1 hPa 0,0 l/m 0,0 km/h (0 Bft) O-NO 67 0 min -3,9 C -3,1 C 0,0 km/h (0 Bft)
10.12.2021 19:05 -1,5 C 6,4 C -2,7 C -2,0 C -2,9 C 0,0 C 86 % 93 % 1001,1 hPa 0,0 l/m 0,0 km/h (0 Bft) O-NO 67 0 min -3,5 C -2,9 C 0,0 km/h (0 Bft)
10.12.2021 19:10 -1,5 C 6,4 C -2,6 C -2,0 C -2,9 C 0,0 C 86 % 93 % 1001,1 hPa 0,0 l/m 0,0 km/h (0 Bft) O-NO 67 0 min -3,5 C -2,9 C 0,0 km/h (0 Bft)
10.12.2021 19:15 -1,5 C 6,4 C -2,7 C -2,0 C -2,9 C 0,0 C 86 % 93 % 1001,1 hPa 0,0 l/m 0,0 km/h (0 Bft) O-NO 67 0 min -3,5 C -2,9 C 0,0 km/h (0 Bft)
10.12.2021 19:20 -1,6 C 6,4 C -2,7 C -2,1 C -3,0 C 0,0 C 86 % 93 % 1001,1 hPa 0,0 l/m 0,0 km/h (0 Bft) O-NO 67 0 min -3,6 C -3,0 C 0,0 km/h (0 Bft)
10.12.2021 19:25 -1,7 C 6,4 C -2,8 C -2,2 C -3,1 C 0,0 C 86 % 93 % 1001,1 hPa 0,0 l/m 0,0 km/h (0 Bft) O-NO 67 0 min -3,7 C -3,1 C 0,0 km/h (0 Bft)
10.12.2021 19:30 -1,7 C 6,4 C -2,9 C -2,2 C -3,1 C 0,0 C 87 % 93 % 1001,4 hPa 0,0 l/m 0,0 km/h (0 Bft) O-NO 67 0 min -3,6 C -3,1 C 0,0 km/h (0 Bft)
10.12.2021 19:35 -1,8 C 6,4 C -2,8 C -2,2 C -3,1 C 0,0 C 87 % 94 % 1001,4 hPa 0,0 l/m 0,0 km/h (0 Bft) O-NO 67 0 min -3,7 C -3,1 C 0,0 km/h (0 Bft)
10.12.2021 19:40 -1,7 C 6,4 C -2,9 C -2,2 C -3,1 C 0,0 C 87 % 94 % 1001,4 hPa 0,0 l/m 0,0 km/h (0 Bft) O-NO 67 0 min -3,6 C -3,1 C 0,0 km/h (0 Bft)
10.12.2021 19:45 -1,9 C 6,4 C -2,9 C -2,3 C -3,2 C 0,0 C 87 % 94 % 1001,4 hPa 0,0 l/m 0,0 km/h (0 Bft) O-NO 67 0 min -3,8 C -3,2 C 0,0 km/h (0 Bft)
10.12.2021 19:50 -1,9 C 6,3 C -2,9 C -2,4 C -3,3 C 0,0 C 87 % 94 % 1001,8 hPa 0,0 l/m 0,0 km/h (0 Bft) O-NO 67 0 min -3,8 C -3,3 C 0,0 km/h (0 Bft)
10.12.2021 19:55 -2,0 C 6,3 C -3,1 C -2,4 C -3,3 C 0,0 C 87 % 94 % 1001,8 hPa 0,0 l/m 0,0 km/h (0 Bft) O-NO 67 0 min -3,9 C -3,3 C 0,0 km/h (0 Bft)
10.12.2021 20:00 -2,0 C 6,3 C -3,2 C -2,4 C -3,2 C 0,0 C 87 % 94 % 1001,8 hPa 0,0 l/m 0,0 km/h (0 Bft) O-NO 67 0 min -3,9 C -3,2 C 0,0 km/h (0 Bft)
10.12.2021 20:05 -2,1 C 6,3 C -3,2 C -2,4 C -3,0 C 0,0 C 87 % 94 % 1001,8 hPa 0,0 l/m 0,0 km/h (0 Bft) O-NO 67 0 min -4,0 C -3,0 C 0,0 km/h (0 Bft)
10.12.2021 20:10 -2,1 C 6,3 C -3,2 C -2,4 C -3,1 C 0,0 C 87 % 94 % 1002,3 hPa 0,0 l/m 0,0 km/h (0 Bft) O-NO 67 0 min -4,0 C -3,1 C 0,0 km/h (0 Bft)
10.12.2021 20:15 -2,2 C 6,3 C -3,2 C -2,6 C -3,4 C 0,0 C 87 % 94 % 1002,3 hPa 0,0 l/m 0,0 km/h (0 Bft) O-NO 67 0 min -4,1 C -3,4 C 0,0 km/h (0 Bft)
10.12.2021 20:20 -2,1 C 6,3 C -3,3 C -2,6 C -3,5 C 0,0 C 87 % 94 % 1002,3 hPa 0,0 l/m 0,0 km/h (0 Bft) O-NO 67 0 min -4,0 C -3,5 C 0,0 km/h (0 Bft)
10.12.2021 20:25 -2,3 C 6,3 C -3,3 C -2,7 C -3,5 C 0,0 C 87 % 94 % 1002,3 hPa 0,0 l/m 0,0 km/h (0 Bft) O-NO 67 0 min -4,2 C -3,5 C 0,0 km/h (0 Bft)
10.12.2021 20:30 -2,3 C 6,3 C -3,3 C -2,8 C -3,7 C 0,0 C 87 % 94 % 1002,2 hPa 0,0 l/m 0,0 km/h (0 Bft) O-NO 67 0 min -4,2 C -3,7 C 0,0 km/h (0 Bft)
10.12.2021 20:35 -2,4 C 6,3 C -3,3 C -2,9 C -3,8 C 0,0 C 87 % 94 % 1002,2 hPa 0,0 l/m 0,0 km/h (0 Bft) O-NO 67 0 min -4,3 C -3,8 C 0,0 km/h (0 Bft)
10.12.2021 20:40 -2,5 C 6,3 C -3,4 C -3,0 C -3,9 C 0,0 C 87 % 93 % 1002,2 hPa 0,0 l/m 0,0 km/h (0 Bft) O-NO 67 0 min -4,4 C -3,9 C 0,0 km/h (0 Bft)
10.12.2021 20:45 -2,5 C 6,3 C -3,5 C -3,0 C -4,0 C 0,0 C 87 % 94 % 1002,2 hPa 0,0 l/m 0,0 km/h (0 Bft) O-NO 67 0 min -4,4 C -4,0 C 0,0 km/h (0 Bft)
10.12.2021 20:50 -2,5 C 6,3 C -3,5 C -3,0 C -4,0 C 0,0 C 87 % 94 % 1002,7 hPa 0,0 l/m 0,0 km/h (0 Bft) O-NO 67 0 min -4,4 C -4,0 C 0,0 km/h (0 Bft)
10.12.2021 20:55 -2,7 C 6,3 C -3,4 C -3,1 C -4,0 C 0,0 C 87 % 94 % 1002,7 hPa 0,0 l/m 0,0 km/h (0 Bft) O-NO 67 0 min -4,6 C -4,0 C 0,0 km/h (0 Bft)
10.12.2021 21:00 -2,7 C 6,3 C -3,5 C -3,1 C -3,9 C 0,0 C 87 % 94 % 1002,7 hPa 0,0 l/m 0,0 km/h (0 Bft) O-NO 67 0 min -4,6 C -3,9 C 0,0 km/h (0 Bft)
10.12.2021 21:05 -2,7 C 6,3 C -3,6 C -3,1 C -3,8 C 0,0 C 88 % 94 % 1002,7 hPa 0,0 l/m 0,0 km/h (0 Bft) O-NO 67 0 min -4,4 C -3,8 C 0,0 km/h (0 Bft)
10.12.2021 21:10 -2,7 C 6,3 C -3,7 C -3,1 C -3,8 C 0,0 C 88 % 94 % 1002,7 hPa 0,0 l/m 0,0 km/h (0 Bft) O-NO 67 0 min -4,4 C -3,8 C 0,0 km/h (0 Bft)
10.12.2021 21:15 -2,7 C 6,3 C -3,6 C -3,1 C -3,8 C 0,0 C 88 % 94 % 1002,7 hPa 0,0 l/m 0,0 km/h (0 Bft) O-NO 67 0 min -4,4 C -3,8 C 0,0 km/h (0 Bft)
10.12.2021 21:20 -2,7 C 6,3 C -3,6 C -3,1 C -3,8 C 0,0 C 88 % 94 % 1002,7 hPa 0,0 l/m 0,0 km/h (0 Bft) O-NO 67 0 min -4,4 C -3,8 C 0,0 km/h (0 Bft)
10.12.2021 21:25 -2,8 C 6,3 C -3,7 C -3,1 C -3,8 C 0,0 C 88 % 94 % 1002,7 hPa 0,0 l/m 0,0 km/h (0 Bft) O-NO 67 0 min -4,5 C -3,8 C 0,0 km/h (0 Bft)
10.12.2021 21:30 -2,7 C 6,3 C -3,7 C -3,1 C -3,8 C 0,0 C 88 % 94 % 1003,0 hPa 0,0 l/m 0,0 km/h (0 Bft) O-NO 67 0 min -4,4 C -3,8 C 0,0 km/h (0 Bft)
10.12.2021 21:35 -2,9 C 6,3 C -3,7 C -3,2 C -3,8 C 0,0 C 88 % 94 % 1003,0 hPa 0,0 l/m 0,0 km/h (0 Bft) O-NO 67 0 min -4,6 C -3,8 C 0,0 km/h (0 Bft)
10.12.2021 21:40 -2,9 C 6,3 C -3,7 C -3,2 C -3,8 C 0,0 C 88 % 94 % 1003,0 hPa 0,0 l/m 0,0 km/h (0 Bft) O-NO 67 0 min -4,6 C -3,8 C 0,0 km/h (0 Bft)
10.12.2021 21:45 -2,8 C 6,2 C -3,7 C -3,2 C -4,0 C 0,0 C 88 % 94 % 1003,0 hPa 0,0 l/m 0,0 km/h (0 Bft) O-NO 67 0 min -4,5 C -4,0 C 0,0 km/h (0 Bft)
10.12.2021 21:50 -2,9 C 6,2 C -3,7 C -3,3 C -4,0 C 0,0 C 88 % 94 % 1003,1 hPa 0,0 l/m 0,0 km/h (0 Bft) O-NO 67 0 min -4,6 C -4,0 C 0,0 km/h (0 Bft)
10.12.2021 21:55 -2,9 C 6,2 C -3,9 C -3,3 C -4,0 C 0,0 C 88 % 94 % 1003,1 hPa 0,0 l/m 0,0 km/h (0 Bft) O-NO 67 0 min -4,6 C -4,0 C 0,0 km/h (0 Bft)
10.12.2021 22:00 -2,9 C 6,2 C -3,9 C -3,3 C -4,1 C 0,0 C 88 % 94 % 1003,1 hPa 0,0 l/m 0,0 km/h (0 Bft) O-NO 67 0 min -4,6 C -4,1 C 0,0 km/h (0 Bft)
10.12.2021 22:05 -2,9 C 6,2 C -3,9 C -3,3 C -4,2 C 0,0 C 88 % 94 % 1003,1 hPa 0,0 l/m 0,0 km/h (0 Bft) O-NO 67 0 min -4,6 C -4,2 C 0,0 km/h (0 Bft)
10.12.2021 22:10 -3,1 C 6,2 C -3,9 C -3,5 C -4,2 C 0,0 C 88 % 94 % 1003,5 hPa 0,0 l/m 0,0 km/h (0 Bft) O-NO 67 0 min -4,8 C -4,2 C 0,0 km/h (0 Bft)
10.12.2021 22:15 -3,1 C 6,2 C -4,0 C -3,4 C -4,1 C 0,0 C 88 % 94 % 1003,5 hPa 0,0 l/m 0,0 km/h (0 Bft) O-NO 67 0 min -4,8 C -4,1 C 0,0 km/h (0 Bft)
10.12.2021 22:20 -3,1 C 6,2 C -4,0 C -3,5 C -4,3 C 0,0 C 88 % 94 % 1003,5 hPa 0,0 l/m 0,0 km/h (0 Bft) O-NO 67 0 min -4,8 C -4,3 C 0,0 km/h (0 Bft)
10.12.2021 22:25 -3,2 C 6,2 C -4,1 C -3,6 C -4,4 C 0,0 C 88 % 94 % 1003,5 hPa 0,0 l/m 0,0 km/h (0 Bft) O-NO 67 0 min -4,9 C -4,4 C 0,0 km/h (0 Bft)
10.12.2021 22:30 -3,3 C 6,2 C -4,1 C -3,7 C -4,5 C 0,0 C 88 % 94 % 1003,8 hPa 0,0 l/m 0,0 km/h (0 Bft) O-NO 67 0 min -5,0 C -4,5 C 0,0 km/h (0 Bft)
10.12.2021 22:35 -3,2 C 6,2 C -4,0 C -3,6 C -4,5 C 0,0 C 88 % 94 % 1003,8 hPa 0,0 l/m 0,0 km/h (0 Bft) O-NO 67 0 min -4,9 C -4,5 C 0,0 km/h (0 Bft)
10.12.2021 22:40 -3,2 C 6,2 C -4,0 C -3,6 C -4,5 C 0,0 C 88 % 94 % 1003,8 hPa 0,0 l/m 0,0 km/h (0 Bft) O-NO 67 0 min -4,9 C -4,5 C 0,0 km/h (0 Bft)
10.12.2021 22:45 -3,3 C 6,2 C -4,1 C -3,7 C -4,6 C 0,0 C 88 % 94 % 1003,8 hPa 0,0 l/m 0,0 km/h (0 Bft) O-NO 67 0 min -5,0 C -4,6 C 0,0 km/h (0 Bft)
10.12.2021 22:50 -3,3 C 6,1 C -4,1 C -3,7 C -4,6 C 0,0 C 88 % 94 % 1004,1 hPa 0,0 l/m 0,0 km/h (0 Bft) O-NO 67 0 min -5,0 C -4,6 C 0,0 km/h (0 Bft)
10.12.2021 22:55 -3,3 C 6,1 C -4,1 C -3,7 C -4,6 C 0,0 C 88 % 94 % 1004,1 hPa 0,0 l/m 0,0 km/h (0 Bft) O-NO 67 0 min -5,0 C -4,6 C 0,0 km/h (0 Bft)
10.12.2021 23:00 -3,3 C 6,1 C -4,2 C -3,8 C -4,7 C 0,0 C 88 % 94 % 1004,1 hPa 0,0 l/m 0,0 km/h (0 Bft) O-NO 67 0 min -5,0 C -4,7 C 0,0 km/h (0 Bft)
10.12.2021 23:05 -3,5 C 6,1 C -4,3 C -3,9 C -4,6 C 0,0 C 88 % 94 % 1004,1 hPa 0,0 l/m 0,0 km/h (0 Bft) O-NO 67 0 min -5,2 C -4,6 C 0,0 km/h (0 Bft)
10.12.2021 23:10 -3,5 C 6,1 C -4,3 C -3,9 C -4,7 C 0,0 C 88 % 94 % 1004,1 hPa 0,0 l/m 0,0 km/h (0 Bft) O-NO 67 0 min -5,2 C -4,7 C 0,0 km/h (0 Bft)
10.12.2021 23:15 -3,3 C 6,1 C -4,3 C -3,7 C -4,5 C 0,0 C 88 % 94 % 1004,1 hPa 0,0 l/m 0,0 km/h (0 Bft) O-NO 67 0 min -5,0 C -4,5 C 0,0 km/h (0 Bft)
10.12.2021 23:20 -3,3 C 6,1 C -4,4 C -3,7 C -4,5 C 0,0 C 88 % 94 % 1004,1 hPa 0,0 l/m 0,0 km/h (0 Bft) O-NO 67 0 min -5,0 C -4,5 C 0,0 km/h (0 Bft)
10.12.2021 23:25 -3,3 C 6,1 C -4,3 C -3,8 C -4,7 C 0,0 C 88 % 94 % 1004,1 hPa 0,0 l/m 0,0 km/h (0 Bft) O-NO 67 0 min -5,0 C -4,7 C 0,0 km/h (0 Bft)
10.12.2021 23:30 -3,5 C 6,1 C -4,3 C -3,9 C -4,8 C 0,0 C 88 % 94 % 1004,2 hPa 0,0 l/m 0,0 km/h (0 Bft) O-NO 67 0 min -5,2 C -4,8 C 0,0 km/h (0 Bft)
10.12.2021 23:35 -3,5 C 6,1 C -4,4 C -3,9 C -4,7 C 0,0 C 88 % 94 % 1004,2 hPa 0,0 l/m 0,0 km/h (0 Bft) O-NO 67 0 min -5,2 C -4,7 C 0,0 km/h (0 Bft)
10.12.2021 23:40 -3,5 C 6,1 C -4,5 C -3,9 C -4,6 C 0,0 C 88 % 94 % 1004,2 hPa 0,0 l/m 0,0 km/h (0 Bft) O-NO 67 0 min -5,2 C -4,6 C 0,0 km/h (0 Bft)
10.12.2021 23:45 -3,6 C 6,1 C -4,5 C -4,0 C -4,7 C 0,0 C 88 % 94 % 1004,2 hPa 0,0 l/m 0,0 km/h (0 Bft) O-NO 67 0 min -5,3 C -4,7 C 0,0 km/h (0 Bft)
10.12.2021 23:50 -3,7 C 6,1 C -4,5 C -4,1 C -4,8 C 0,0 C 88 % 94 % 1005,0 hPa 0,0 l/m 0,0 km/h (0 Bft) O-NO 67 0 min -5,4 C -4,8 C 0,0 km/h (0 Bft)
10.12.2021 23:55 -3,7 C 6,1 C -4,7 C -4,0 C -4,7 C 0,0 C 88 % 94 % 1005,0 hPa 0,0 l/m 0,0 km/h (0 Bft) O-NO 67 0 min -5,4 C -4,7 C 0,0 km/h (0 Bft)
_ Min-Zeit 23:50 00:00 23:55 23:50 23:30 01:00 14:35 14:25 14:30 - 00:30 - - - 23:50 23:30 00:20
Minimum _ -3,7 C 6,1 C -4,7 C -4,1 C -4,8 C 0,0 C 79 % 85 % 998,9 hPa - 0,0 km/h (0 Bft) - - - -5,4 C -4,8 C 0,0 km/h (0 Bft)
_ Max-Zeit 13:45 09:30 11:25 11:30 11:30 11:30 00:00 01:10 00:10 10:20 12:40 - - 08:15 12:05 11:30 12:45
Maximum _ 4,5 C 6,4 C 4,0 C 7,9 C 7,9 C 5,5 C 89 % 95 % 1006,8 hPa 0,7 l/m 7,7 km/h
NO (2 Bft)
- - 5 min 2,2 C 7,9 C 11,1 km/h
O (2 Bft)
Durchschnitt _ 0,2 C 6,2 C -0,1 C 0,7 C 0,4 C 0,7 C 87 % 92 % 1002,0 hPa #1,4 l/m 0,5 km/h (0 Bft) O-NO - #1:45 h -1,8 C 0,3 C 0,6 km/h (0 Bft)
2021 www.wetterstation-wechselburg.de